This is the latest recevied weather packets stored in our database for station/object KB7KFC-3. If no packets are shown the sender has not sent any weather packets the latest 1 day(s).
| Time | Temp. | Humidity | Pressure | Rain* | Wind** | Luminosity | Snow |
|---|---|---|---|---|---|---|---|
| 1778080924 | 18.89° C | 37% | 1017.6 hPa | 0 mm | - | - | - |
| 1778077325 | 15.56° C | 44% | 1017.2 hPa | 0 mm | - | - | - |
| 1778076965 | 15.56° C | 46% | 1017.1 hPa | 0 mm | - | - | - |
| 1778076065 | 15° C | 48% | 1017 hPa | 0 mm | - | - | - |
| 1778075884 | 14.44° C | 49% | 1016.9 hPa | 0 mm | - | - | - |
| 1778075704 | 14.44° C | 47% | 1017 hPa | 0 mm | - | - | - |
| 1778075526 | 14.44° C | 46% | 1016.9 hPa | 0 mm | - | - | - |
| 1778075344 | 14.44° C | 46% | 1016.8 hPa | 0 mm | - | - | - |
| 1778075164 | 14.44° C | 47% | 1016.8 hPa | 0 mm | - | - | - |
| 1778074084 | 13.89° C | 47% | 1016.7 hPa | 0 mm | - | - | - |
| 1778073005 | 13.33° C | 46% | 1016.4 hPa | 0 mm | - | - | - |
| 1778072824 | 13.33° C | 47% | 1016.3 hPa | 0 mm | - | - | - |
| 1778072644 | 13.33° C | 46% | 1016.3 hPa | 0 mm | - | - | - |
| 1778072464 | 13.33° C | 46% | 1016.3 hPa | 0 mm | - | - | - |
| 1778071385 | 13.33° C | 49% | 1016 hPa | 0 mm | - | - | - |
| 1778071204 | 13.33° C | 50% | 1016.1 hPa | 0 mm | - | - | - |
| 1778071025 | 13.33° C | 49% | 1016 hPa | 0 mm | - | - | - |
| 1778070845 | 13.33° C | 50% | 1015.9 hPa | 0 mm | - | - | - |
| 1778070665 | 13.33° C | 49% | 1015.9 hPa | 0 mm | - | - | - |
| 1778069584 | 13.33° C | 52% | 1015.8 hPa | 0 mm | - | - | - |
| 1778069405 | 13.33° C | 50% | 1015.7 hPa | 0 mm | - | - | - |
| 1778069225 | 13.33° C | 51% | 1015.6 hPa | 0 mm | - | - | - |
| 1778068685 | 13.33° C | 53% | 1015.6 hPa | 0 mm | - | - | - |
| 1778067965 | 13.33° C | 50% | 1015.6 hPa | 0 mm | - | - | - |
| 1778066884 | 13.33° C | 48% | 1015.6 hPa | 0 mm | - | - | - |
* Rain latest hour (hover to see other rain measurements)
** Current wind speed in m/s (hover to see current wind gust speed)